createdAt,value
2017-11-28T00:00:49.652Z,6.28
2017-11-28T00:01:49.366Z,6.25
2017-11-28T00:02:49.065Z,6.26
2017-11-28T00:03:49.050Z,6.26
2017-11-28T00:04:49.295Z,6.22
2017-11-28T00:05:49.561Z,6.28
2017-11-28T00:06:49.254Z,6.25
2017-11-28T00:07:48.962Z,6.21
2017-11-28T00:08:48.941Z,6.29
2017-11-28T00:09:49.200Z,6.19
2017-11-28T00:10:49.170Z,6.21
2017-11-28T00:11:49.153Z,6.22
2017-11-28T00:12:48.859Z,6.16
2017-11-28T00:13:48.840Z,6.13
2017-11-28T00:14:49.565Z,6.11
2017-11-28T00:15:49.385Z,6.11
2017-11-28T00:16:49.048Z,6.06
2017-11-28T00:17:49.296Z,6.09
2017-11-28T00:18:49.288Z,6.18
2017-11-28T00:19:48.982Z,6.11
2017-11-28T00:20:49.234Z,6.11
2017-11-28T00:21:48.939Z,6.16
2017-11-28T00:22:49.230Z,6.1
2017-11-28T00:23:48.909Z,6.1
2017-11-28T00:24:48.885Z,6.1
2017-11-28T00:25:48.588Z,6.11
2017-11-28T00:26:49.106Z,6.14
2017-11-28T00:27:48.825Z,6.11
2017-11-28T00:28:49.074Z,6.11
2017-11-28T00:29:49.046Z,6.21
2017-11-28T00:30:48.766Z,6.11
2017-11-28T00:31:48.468Z,6.09
2017-11-28T00:32:48.450Z,6.16
2017-11-28T00:33:48.963Z,6.14
2017-11-28T00:34:48.669Z,6.04
2017-11-28T00:35:48.653Z,6.06
2017-11-28T00:36:48.911Z,6.07
2017-11-28T00:37:48.880Z,6.07
2017-11-28T00:38:48.585Z,6.11
2017-11-28T00:39:48.873Z,6.07
2017-11-28T00:40:48.819Z,6.13
2017-11-28T00:41:48.828Z,6.1
2017-11-28T00:42:48.771Z,6.1
2017-11-28T00:43:48.751Z,6.11
2017-11-28T00:44:48.458Z,6.11
2017-11-28T00:45:48.720Z,6.07
2017-11-28T00:46:48.712Z,6.07
2017-11-28T00:47:48.128Z,6.11
2017-11-28T00:48:48.377Z,6.14
2017-11-28T00:49:48.091Z,6.11
2017-11-28T00:50:48.340Z,6.07
2017-11-28T00:51:48.328Z,6.16
2017-11-28T00:52:48.024Z,6.11
2017-11-28T00:53:48.274Z,6.1
2017-11-28T00:54:48.255Z,6.1
2017-11-28T00:55:48.237Z,6.11
2017-11-28T00:56:47.942Z,6.1
2017-11-28T00:57:48.228Z,6.11
2017-11-28T00:58:48.168Z,6.1
2017-11-28T00:59:48.417Z,6.1
2017-11-28T01:00:48.130Z,6.07
2017-11-28T01:01:48.115Z,6.1
2017-11-28T01:02:48.350Z,6.13
2017-11-28T01:03:48.371Z,6.13
2017-11-28T01:04:47.779Z,6.1
2017-11-28T01:05:48.022Z,6.11
2017-11-28T01:06:48.008Z,6.13
2017-11-28T01:07:48.253Z,6.11
2017-11-28T01:08:48.246Z,6.13
2017-11-28T01:09:48.216Z,6.04
2017-11-28T01:10:48.202Z,6.11
2017-11-28T01:11:47.906Z,6.07
2017-11-28T01:12:47.612Z,6.09
2017-11-28T01:13:47.853Z,6.11
2017-11-28T01:14:47.841Z,6.09
2017-11-28T01:15:48.090Z,6.09
2017-11-28T01:16:47.792Z,6.01
2017-11-28T01:17:47.781Z,6.04
2017-11-28T01:18:47.777Z,6
2017-11-28T01:19:47.742Z,6.06
2017-11-28T01:20:47.708Z,5.93
2017-11-28T01:21:47.419Z,5.92
2017-11-28T01:22:47.401Z,5.91
2017-11-28T01:23:47.933Z,5.93
2017-11-28T01:24:47.636Z,5.92
2017-11-28T01:25:47.883Z,5.98
2017-11-28T01:26:47.592Z,5.92
2017-11-28T01:27:47.569Z,5.89
2017-11-28T01:28:47.816Z,5.96
2017-11-28T01:29:47.253Z,5.96
2017-11-28T01:30:47.505Z,6
2017-11-28T01:31:47.488Z,5.92
2017-11-28T01:32:47.461Z,5.93
2017-11-28T01:33:47.167Z,5.96
2017-11-28T01:34:47.710Z,5.88
2017-11-28T01:35:47.682Z,6
2017-11-28T01:36:47.375Z,5.93
2017-11-28T01:37:47.359Z,5.82
2017-11-28T01:38:47.340Z,5.96
2017-11-28T01:39:47.326Z,5.88
2017-11-28T01:40:47.024Z,5.92
2017-11-28T01:41:47.269Z,5.92
2017-11-28T01:42:46.979Z,5.92
2017-11-28T01:43:47.235Z,5.88
2017-11-28T01:44:47.210Z,5.88
2017-11-28T01:45:47.198Z,5.88
2017-11-28T01:46:47.431Z,5.83
2017-11-28T01:47:47.148Z,5.86
2017-11-28T01:48:47.122Z,5.86
2017-11-28T01:49:47.109Z,5.86
2017-11-28T01:50:47.349Z,5.83
2017-11-28T01:51:47.338Z,5.92
2017-11-28T01:52:47.306Z,5.89
2017-11-28T01:53:47.022Z,5.91
2017-11-28T01:54:47.002Z,5.83
2017-11-28T01:55:47.264Z,5.83
2017-11-28T01:56:46.966Z,5.83
2017-11-28T01:57:46.935Z,5.73
2017-11-28T01:58:46.930Z,5.83
2017-11-28T01:59:46.893Z,5.88
2017-11-28T02:00:47.143Z,5.83
2017-11-28T02:01:47.121Z,5.83
2017-11-28T02:02:46.838Z,5.85
2017-11-28T02:03:47.084Z,5.86
2017-11-28T02:04:47.059Z,5.83
2017-11-28T02:05:47.048Z,5.83
2017-11-28T02:06:46.752Z,5.83
2017-11-28T02:07:47.001Z,5.83
2017-11-28T02:08:46.706Z,5.83
2017-11-28T02:09:46.680Z,5.85
2017-11-28T02:10:46.393Z,5.86
2017-11-28T02:11:46.912Z,5.86
2017-11-28T02:12:46.888Z,5.78
2017-11-28T02:13:46.325Z,5.78
2017-11-28T02:14:46.780Z,5.78
2017-11-28T02:15:46.564Z,5.77
2017-11-28T02:16:46.800Z,5.83
2017-11-28T02:17:46.516Z,5.77
2017-11-28T02:18:46.225Z,5.82
2017-11-28T02:19:46.746Z,5.85
2017-11-28T02:20:46.728Z,5.82
2017-11-28T02:21:46.713Z,5.78
2017-11-28T02:22:46.702Z,5.85
2017-11-28T02:23:46.399Z,5.83
2017-11-28T02:24:46.375Z,5.85
2017-11-28T02:25:46.353Z,5.82
2017-11-28T02:26:46.596Z,5.83
2017-11-28T02:27:46.299Z,5.83
2017-11-28T02:28:46.554Z,5.83
2017-11-28T02:29:46.273Z,5.89
2017-11-28T02:30:46.524Z,5.89
2017-11-28T02:31:46.226Z,5.98
2017-11-28T02:32:46.468Z,5.93
2017-11-28T02:33:46.183Z,5.91
2017-11-28T02:34:46.160Z,5.95
2017-11-28T02:35:46.136Z,5.92
2017-11-28T02:36:46.120Z,5.92
2017-11-28T02:37:45.825Z,5.93
2017-11-28T02:38:46.084Z,5.95
2017-11-28T02:39:46.350Z,6.01
2017-11-28T02:40:46.300Z,6.03
2017-11-28T02:41:46.288Z,5.98
2017-11-28T02:42:46.007Z,5.96
2017-11-28T02:43:45.971Z,5.91
2017-11-28T02:44:45.951Z,5.95
2017-11-28T02:45:45.660Z,6
2017-11-28T02:46:45.638Z,5.93
2017-11-28T02:47:45.887Z,5.89
2017-11-28T02:48:46.137Z,5.93
2017-11-28T02:49:46.130Z,6
2017-11-28T02:50:46.096Z,6
2017-11-28T02:51:46.087Z,5.88
2017-11-28T02:52:46.051Z,6.07
2017-11-28T02:53:45.498Z,6.04
2017-11-28T02:54:45.741Z,5.91
2017-11-28T02:55:45.719Z,6.01
2017-11-28T02:56:45.698Z,5.88
2017-11-28T02:57:45.957Z,5.96
2017-11-28T02:58:45.660Z,5.95
2017-11-28T02:59:45.640Z,5.91
2017-11-28T03:00:45.339Z,6
2017-11-28T03:01:45.598Z,5.93
2017-11-28T03:02:45.302Z,5.96
2017-11-28T03:03:45.555Z,5.96
2017-11-28T03:04:45.810Z,5.93
2017-11-28T03:05:45.239Z,6
2017-11-28T03:06:45.219Z,6
2017-11-28T03:07:45.732Z,6.03
2017-11-28T03:08:45.450Z,6.01
2017-11-28T03:09:45.420Z,5.96
2017-11-28T03:10:45.682Z,5.98
2017-11-28T03:11:45.378Z,5.93
2017-11-28T03:12:45.632Z,6
2017-11-28T03:13:45.345Z,6
2017-11-28T03:14:45.317Z,6.03
2017-11-28T03:15:45.576Z,5.96
2017-11-28T03:16:45.272Z,6.03
2017-11-28T03:17:44.987Z,5.95
2017-11-28T03:18:45.234Z,5.93
2017-11-28T03:19:44.942Z,5.96
2017-11-28T03:20:44.927Z,5.95
2017-11-28T03:21:44.903Z,5.98
2017-11-28T03:22:45.421Z,6
2017-11-28T03:23:45.396Z,5.98
2017-11-28T03:24:45.113Z,6.06
2017-11-28T03:25:45.365Z,6
2017-11-28T03:26:44.795Z,5.91
2017-11-28T03:27:45.044Z,5.92
2017-11-28T03:28:45.034Z,6.03
2017-11-28T03:29:45.003Z,5.91
2017-11-28T03:30:45.284Z,5.98
2017-11-28T03:31:44.962Z,5.95
2017-11-28T03:32:44.675Z,5.92
2017-11-28T03:33:44.920Z,5.98
2017-11-28T03:34:44.897Z,5.91
2017-11-28T03:35:44.606Z,5.93
2017-11-28T03:36:44.854Z,5.93
2017-11-28T03:37:44.563Z,6
2017-11-28T03:38:44.824Z,6.06
2017-11-28T03:39:44.790Z,6.01
2017-11-28T03:40:44.772Z,5.95
2017-11-28T03:41:45.023Z,6.03
2017-11-28T03:42:45.007Z,6.01
2017-11-28T03:43:44.710Z,6
2017-11-28T03:44:44.689Z,5.86
2017-11-28T03:45:44.673Z,5.95
2017-11-28T03:46:44.648Z,5.88
2017-11-28T03:47:44.620Z,5.93
2017-11-28T03:48:44.614Z,5.95
2017-11-28T03:49:44.584Z,5.88
2017-11-28T03:50:44.299Z,5.98
2017-11-28T03:51:44.546Z,5.93
2017-11-28T03:52:44.793Z,5.98
2017-11-28T03:53:44.501Z,5.92
2017-11-28T03:54:44.205Z,5.96
2017-11-28T03:55:44.454Z,5.93
2017-11-28T03:56:44.711Z,6.01
2017-11-28T03:57:44.682Z,6.06
2017-11-28T03:58:44.407Z,5.93
2017-11-28T03:59:44.100Z,6.03
2017-11-28T04:00:44.621Z,5.89
2017-11-28T04:01:44.600Z,5.89
2017-11-28T04:02:44.578Z,5.93
2017-11-28T04:03:44.286Z,5.98
2017-11-28T04:04:43.996Z,5.95
2017-11-28T04:05:44.522Z,5.96
2017-11-28T04:06:44.503Z,5.92
2017-11-28T04:07:44.205Z,5.95
2017-11-28T04:08:44.183Z,5.93
2017-11-28T04:09:44.164Z,5.91
2017-11-28T04:10:43.877Z,5.92
2017-11-28T04:11:44.395Z,5.92
2017-11-28T04:12:44.101Z,6.01
2017-11-28T04:13:44.083Z,5.92
2017-11-28T04:14:44.267Z,5.89
2017-11-28T04:15:44.036Z,6
2017-11-28T04:16:43.756Z,5.95
2017-11-28T04:17:43.996Z,5.89
2017-11-28T04:18:43.970Z,5.89
2017-11-28T04:19:44.225Z,5.91
2017-11-28T04:20:43.931Z,5.91
2017-11-28T04:21:43.924Z,5.86
2017-11-28T04:22:43.887Z,5.89
2017-11-28T04:23:44.145Z,5.88
2017-11-28T04:24:44.116Z,5.93
2017-11-28T04:25:44.093Z,5.89
2017-11-28T04:26:43.810Z,5.95
2017-11-28T04:27:43.786Z,5.93
2017-11-28T04:28:43.774Z,5.92
2017-11-28T04:29:44.011Z,5.96
2017-11-28T04:30:43.992Z,5.95
2017-11-28T04:31:43.971Z,5.95
2017-11-28T04:32:43.679Z,6
2017-11-28T04:33:43.387Z,6.03
2017-11-28T04:34:43.917Z,5.98
2017-11-28T04:35:43.617Z,5.95
2017-11-28T04:36:43.328Z,6.11
2017-11-28T04:37:43.574Z,5.96
2017-11-28T04:38:43.821Z,5.95
2017-11-28T04:39:43.801Z,6
2017-11-28T04:40:43.778Z,6.03
2017-11-28T04:41:43.221Z,6
2017-11-28T04:42:43.477Z,6.03
2017-11-28T04:43:43.724Z,6.03
2017-11-28T04:44:43.701Z,6.07
2017-11-28T04:45:43.407Z,6.06
2017-11-28T04:46:43.384Z,6.13
2017-11-28T04:47:43.367Z,6.09
2017-11-28T04:48:43.618Z,6.09
2017-11-28T04:49:43.596Z,6.1
2017-11-28T04:50:43.303Z,6.11
2017-11-28T04:51:43.283Z,6.1
2017-11-28T04:52:43.530Z,6.1
2017-11-28T04:53:43.238Z,6.11
2017-11-28T04:54:42.946Z,6.1
2017-11-28T04:55:43.196Z,6.16
2017-11-28T04:56:43.448Z,6.09
2017-11-28T04:57:43.427Z,6.18
2017-11-28T04:58:43.401Z,6.06
2017-11-28T04:59:43.111Z,6.11
2017-11-28T05:00:43.093Z,6.07
2017-11-28T05:01:43.075Z,6.13
2017-11-28T05:02:43.059Z,6.22
2017-11-28T05:03:43.031Z,6.19
2017-11-28T05:04:43.275Z,6.28
2017-11-28T05:05:42.985Z,6.21
2017-11-28T05:06:42.698Z,6.19
2017-11-28T05:07:42.951Z,6.14
2017-11-28T05:08:42.922Z,6.14
2017-11-28T05:09:43.201Z,6.09
2017-11-28T05:10:42.608Z,6.11
2017-11-28T05:11:42.592Z,6.09
2017-11-28T05:12:42.838Z,6.14
2017-11-28T05:13:42.815Z,6.1
2017-11-28T05:14:42.797Z,6.03
2017-11-28T05:15:42.507Z,6.03
2017-11-28T05:16:42.756Z,6.1
2017-11-28T05:17:43.009Z,6.11
2017-11-28T05:18:42.718Z,6.1
2017-11-28T05:19:42.429Z,6.1
2017-11-28T05:20:42.689Z,6.14
2017-11-28T05:21:42.662Z,6.09
2017-11-28T05:22:42.631Z,6.1
2017-11-28T05:23:42.616Z,6.14
2017-11-28T05:24:42.592Z,6.07
2017-11-28T05:25:42.303Z,6.09
2017-11-28T05:26:42.824Z,6.14
2017-11-28T05:27:42.256Z,6.11
2017-11-28T05:28:42.505Z,6.1
2017-11-28T05:29:42.484Z,6.14
2017-11-28T05:30:42.734Z,6.11
2017-11-28T05:31:42.447Z,6.16
2017-11-28T05:32:42.424Z,6.18
2017-11-28T05:33:42.405Z,6.22
2017-11-28T05:34:42.410Z,6.13
2017-11-28T05:35:42.633Z,6.16
2017-11-28T05:36:42.349Z,6.13
2017-11-28T05:37:42.599Z,6.16
2017-11-28T05:38:42.033Z,6.28
2017-11-28T05:39:42.291Z,6.19
2017-11-28T05:40:42.281Z,6.19
2017-11-28T05:41:42.241Z,6.26
2017-11-28T05:42:42.513Z,6.19
2017-11-28T05:43:42.485Z,6.21
2017-11-28T05:44:42.172Z,6.26
2017-11-28T05:45:42.156Z,6.22
2017-11-28T05:46:42.146Z,6.26
2017-11-28T05:47:42.117Z,6.16
2017-11-28T05:48:42.095Z,6.18
2017-11-28T05:49:42.349Z,6.19
2017-11-28T05:50:42.047Z,6.1
2017-11-28T05:51:42.030Z,6.18
2017-11-28T05:52:42.009Z,6.07
2017-11-28T05:53:41.992Z,6.09
2017-11-28T05:54:41.702Z,6.09
2017-11-28T05:55:41.682Z,6.06
2017-11-28T05:56:41.655Z,6.04
2017-11-28T05:57:42.174Z,5.98
2017-11-28T05:58:42.168Z,5.98
2017-11-28T05:59:41.862Z,5.92
2017-11-28T06:00:42.117Z,5.96
2017-11-28T06:01:41.840Z,6.01
2017-11-28T06:02:42.068Z,5.92
2017-11-28T06:03:41.787Z,5.88
2017-11-28T06:04:41.760Z,5.92
2017-11-28T06:05:41.747Z,5.96
2017-11-28T06:06:41.746Z,5.95
2017-11-28T06:07:41.706Z,5.91
2017-11-28T06:08:41.678Z,5.91
2017-11-28T06:09:41.936Z,5.88
2017-11-28T06:10:41.364Z,5.86
2017-11-28T06:11:41.612Z,5.88
2017-11-28T06:12:41.869Z,5.86
2017-11-28T06:13:41.575Z,5.95
2017-11-28T06:14:41.754Z,5.85
2017-11-28T06:15:41.803Z,5.86
2017-11-28T06:16:41.778Z,5.85
2017-11-28T06:17:41.485Z,5.85
2017-11-28T06:18:41.464Z,5.77
2017-11-28T06:19:41.713Z,5.77
2017-11-28T06:20:41.423Z,5.71
2017-11-28T06:21:41.683Z,5.73
2017-11-28T06:22:41.112Z,5.68
2017-11-28T06:23:41.362Z,5.68
2017-11-28T06:24:41.340Z,5.71
2017-11-28T06:25:41.612Z,5.81
2017-11-28T06:26:41.037Z,5.75
2017-11-28T06:27:41.282Z,5.68
2017-11-28T06:28:41.262Z,5.68
2017-11-28T06:29:41.523Z,5.63
2017-11-28T06:30:41.492Z,5.71
2017-11-28T06:31:41.466Z,5.59
2017-11-28T06:32:41.450Z,5.64
2017-11-28T06:33:41.155Z,5.66
2017-11-28T06:34:40.865Z,5.6
2017-11-28T06:35:41.128Z,5.64
2017-11-28T06:36:41.093Z,5.64
2017-11-28T06:37:41.070Z,5.67
2017-11-28T06:38:41.312Z,5.74
2017-11-28T06:39:41.297Z,5.67
2017-11-28T06:40:41.011Z,5.59
2017-11-28T06:41:40.706Z,5.73
2017-11-28T06:42:40.958Z,5.66
2017-11-28T06:43:40.680Z,5.64
2017-11-28T06:44:41.189Z,5.64
2017-11-28T06:45:41.179Z,5.63
2017-11-28T06:46:41.149Z,5.59
2017-11-28T06:47:40.862Z,5.56
2017-11-28T06:48:40.556Z,5.59
2017-11-28T06:49:41.084Z,5.59
2017-11-28T06:50:41.052Z,5.59
2017-11-28T06:51:40.499Z,5.68
2017-11-28T06:52:40.739Z,5.68
2017-11-28T06:53:40.722Z,5.6
2017-11-28T06:54:40.981Z,5.68
2017-11-28T06:55:40.954Z,5.71
2017-11-28T06:56:40.934Z,5.83
2017-11-28T06:57:40.905Z,5.83
2017-11-28T06:58:40.627Z,5.88
2017-11-28T06:59:40.606Z,5.86
2017-11-28T07:00:40.303Z,5.86
2017-11-28T07:01:40.819Z,5.93
2017-11-28T07:02:40.264Z,5.91
2017-11-28T07:03:40.783Z,5.91
2017-11-28T07:04:40.221Z,5.91
2017-11-28T07:05:40.749Z,5.93
2017-11-28T07:06:40.181Z,6.03
2017-11-28T07:07:40.425Z,5.92
2017-11-28T07:08:40.671Z,5.92
2017-11-28T07:09:40.384Z,6
2017-11-28T07:10:40.660Z,5.85
2017-11-28T07:11:40.609Z,5.93
2017-11-28T07:12:40.595Z,5.88
2017-11-28T07:13:40.565Z,5.85
2017-11-28T07:14:40.588Z,5.88
2017-11-28T07:15:40.541Z,5.89
2017-11-28T07:16:40.532Z,5.96
2017-11-28T07:17:40.220Z,6.01
2017-11-28T07:18:40.194Z,6
2017-11-28T07:19:40.171Z,6.04
2017-11-28T07:20:40.154Z,6.07
2017-11-28T07:21:40.137Z,5.98
2017-11-28T07:22:40.105Z,6.06
2017-11-28T07:23:39.816Z,6.07
2017-11-28T07:24:40.067Z,6.07
2017-11-28T07:25:40.046Z,6.07
2017-11-28T07:26:40.023Z,6.1
2017-11-28T07:27:40.272Z,5.96
2017-11-28T07:28:39.982Z,6.03
2017-11-28T07:29:39.963Z,6.07
2017-11-28T07:30:40.212Z,6.03
2017-11-28T07:31:40.197Z,6
2017-11-28T07:32:39.895Z,5.95
2017-11-28T07:33:39.879Z,5.95
2017-11-28T07:34:40.129Z,6.01
2017-11-28T07:35:39.563Z,5.93
2017-11-28T07:36:39.842Z,6
2017-11-28T07:37:39.803Z,5.95
2017-11-28T07:38:39.782Z,5.91
2017-11-28T07:39:40.035Z,6.01
2017-11-28T07:40:39.461Z,5.93
2017-11-28T07:41:39.715Z,5.88
2017-11-28T07:42:39.963Z,5.89
2017-11-28T07:43:39.679Z,5.88
2017-11-28T07:44:39.944Z,5.86
2017-11-28T07:45:39.656Z,5.88
2017-11-28T07:46:39.337Z,5.88
2017-11-28T07:47:39.863Z,5.93
2017-11-28T07:48:39.295Z,5.91
2017-11-28T07:49:39.553Z,5.83
2017-11-28T07:50:39.791Z,5.89
2017-11-28T07:51:39.501Z,5.98
2017-11-28T07:52:39.750Z,5.91
2017-11-28T07:53:39.457Z,5.98
2017-11-28T07:54:39.445Z,5.96
2017-11-28T07:55:39.412Z,6
2017-11-28T07:56:39.403Z,5.86
2017-11-28T07:57:39.380Z,5.95
2017-11-28T07:58:39.393Z,6.09
2017-11-28T07:59:39.334Z,5.93
2017-11-28T08:00:39.577Z,6
2017-11-28T08:01:39.556Z,6.1
2017-11-28T08:02:39.270Z,6.04
2017-11-28T08:03:39.256Z,6.07
2017-11-28T08:04:38.969Z,6.1
2017-11-28T08:05:39.254Z,6.09
2017-11-28T08:06:39.183Z,6.22
2017-11-28T08:07:38.898Z,6.25
2017-11-28T08:08:39.416Z,6.25
2017-11-28T08:09:39.122Z,6.21
2017-11-28T08:10:39.103Z,6.21
2017-11-28T08:11:39.085Z,6.14
2017-11-28T08:12:39.337Z,6.13
2017-11-28T08:13:39.038Z,6.14
2017-11-28T08:14:38.948Z,6.14
2017-11-28T08:15:38.999Z,6.1
2017-11-28T08:16:39.260Z,6.14
2017-11-28T08:17:38.978Z,6.22
2017-11-28T08:18:38.944Z,6.26
2017-11-28T08:19:38.923Z,6.28
2017-11-28T08:20:38.892Z,6.28
2017-11-28T08:21:38.871Z,6.26
2017-11-28T08:22:39.123Z,6.28
2017-11-28T08:23:39.111Z,6.28
2017-11-28T08:24:39.085Z,6.29
2017-11-28T08:25:39.069Z,6.22
2017-11-28T08:26:38.772Z,6.22
2017-11-28T08:27:38.744Z,6.21
2017-11-28T08:28:38.735Z,6.26
2017-11-28T08:29:38.709Z,6.22
2017-11-28T08:30:38.959Z,6.25
2017-11-28T08:31:38.970Z,6.22
2017-11-28T08:32:38.659Z,6.19
2017-11-28T08:33:38.635Z,6.21
2017-11-28T08:34:38.875Z,6.25
2017-11-28T08:35:38.592Z,6.18
2017-11-28T08:36:38.839Z,6.14
2017-11-28T08:37:38.281Z,6.14
2017-11-28T08:38:38.534Z,6.1
2017-11-28T08:39:38.787Z,6.09
2017-11-28T08:40:38.212Z,6.03
2017-11-28T08:41:38.466Z,6.11
2017-11-28T08:42:38.446Z,6.1
2017-11-28T08:43:38.839Z,6.11
2017-11-28T08:44:38.134Z,6.07
2017-11-28T08:45:38.650Z,6.07
2017-11-28T08:46:38.358Z,6.18
2017-11-28T08:47:38.064Z,6.19
2017-11-28T08:48:38.316Z,6.19
2017-11-28T08:49:38.026Z,6.16
2017-11-28T08:50:38.542Z,6.18
2017-11-28T08:51:38.262Z,6.32
2017-11-28T08:52:38.238Z,6.32
2017-11-28T08:53:38.252Z,6.32
2017-11-28T08:54:38.195Z,6.4
2017-11-28T08:55:37.909Z,6.3
2017-11-28T08:56:38.143Z,6.38
2017-11-28T08:57:38.148Z,6.33
2017-11-28T08:58:38.107Z,6.46
2017-11-28T08:59:38.103Z,6.47
2017-11-28T09:00:38.334Z,6.5
2017-11-28T09:01:38.315Z,6.58
2017-11-28T09:02:38.297Z,6.58
2017-11-28T09:03:38.283Z,6.58
2017-11-28T09:04:37.985Z,6.48
2017-11-28T09:05:38.235Z,6.51
2017-11-28T09:06:37.946Z,6.54
2017-11-28T09:07:37.922Z,6.54
2017-11-28T09:08:37.901Z,6.53
2017-11-28T09:09:37.883Z,6.58
2017-11-28T09:10:38.133Z,6.58
2017-11-28T09:11:38.110Z,6.62
2017-11-28T09:12:37.829Z,6.53
2017-11-28T09:13:38.084Z,6.58
2017-11-28T09:14:37.789Z,6.68
2017-11-28T09:15:38.032Z,6.73
2017-11-28T09:16:37.472Z,6.77
2017-11-28T09:17:37.996Z,6.98
2017-11-28T09:18:37.707Z,7.26
2017-11-28T09:19:37.678Z,7.32
2017-11-28T09:20:37.662Z,7.2
2017-11-28T09:21:37.924Z,7.15
2017-11-28T09:22:37.621Z,7.13
2017-11-28T09:23:37.893Z,7.01
2017-11-28T09:24:37.587Z,6.97
2017-11-28T09:25:37.838Z,7.02
2017-11-28T09:26:37.267Z,7.12
2017-11-28T09:27:37.802Z,7.17
2017-11-28T09:28:37.770Z,7.31
2017-11-28T09:29:37.764Z,7.67
2017-11-28T09:30:37.454Z,7.85
2017-11-28T09:31:37.437Z,7.9
2017-11-28T09:32:37.420Z,7.81
2017-11-28T09:33:37.669Z,7.79
2017-11-28T09:34:37.649Z,7.77
2017-11-28T09:35:37.631Z,7.49
2017-11-28T09:36:37.612Z,7.53
2017-11-28T09:37:37.324Z,7.5
2017-11-28T09:38:37.575Z,7.41
2017-11-28T09:39:37.556Z,7.42
2017-11-28T09:40:37.543Z,7.42
2017-11-28T09:41:37.514Z,7.49
2017-11-28T09:42:37.227Z,7.32
2017-11-28T09:43:37.211Z,7.38
2017-11-28T09:44:37.457Z,7.31
2017-11-28T09:45:37.442Z,7.79
2017-11-28T09:46:37.158Z,8.04
2017-11-28T09:47:37.146Z,8.39
2017-11-28T09:48:37.398Z,8.33
2017-11-28T09:49:36.836Z,8.14
2017-11-28T09:50:37.083Z,7.85
2017-11-28T09:51:36.788Z,7.84
2017-11-28T09:52:36.773Z,7.89
2017-11-28T09:53:37.020Z,8.1
2017-11-28T09:54:37.281Z,8.51
2017-11-28T09:55:36.991Z,8.39
2017-11-28T09:56:36.973Z,8.55
2017-11-28T09:57:36.969Z,8.96
2017-11-28T09:58:37.199Z,9.23
2017-11-28T09:59:36.920Z,9.21
2017-11-28T10:00:37.164Z,9.15
2017-11-28T10:01:36.610Z,9.31
2017-11-28T10:02:36.860Z,9.21
2017-11-28T10:03:36.842Z,9.42
2017-11-28T10:04:37.097Z,9.46
2017-11-28T10:05:37.079Z,9.66
2017-11-28T10:06:36.796Z,9.73
2017-11-28T10:07:36.771Z,9.76
2017-11-28T10:08:36.752Z,10.22
2017-11-28T10:09:36.750Z,10.18
2017-11-28T10:10:36.720Z,9.97
2017-11-28T10:11:36.435Z,9.43
2017-11-28T10:12:36.428Z,9.2
2017-11-28T10:13:36.676Z,8.94
2017-11-28T10:14:36.867Z,8.75
2017-11-28T10:15:36.373Z,8.91
2017-11-28T10:16:36.900Z,8.79
2017-11-28T10:17:36.607Z,8.79
2017-11-28T10:18:36.868Z,8.58
2017-11-28T10:19:36.845Z,8.33
2017-11-28T10:20:36.852Z,8.35
2017-11-28T10:21:36.268Z,8.35
2017-11-28T10:22:36.521Z,8.3
2017-11-28T10:23:36.772Z,8.17
2017-11-28T10:24:36.499Z,8.03
2017-11-28T10:25:36.202Z,7.93
2017-11-28T10:26:36.184Z,7.92
2017-11-28T10:27:36.166Z,7.96
2017-11-28T10:28:36.694Z,8.03
2017-11-28T10:29:36.669Z,8.32
2017-11-28T10:30:36.382Z,8.53
2017-11-28T10:31:36.367Z,8.4
2017-11-28T10:32:36.619Z,8.33
2017-11-28T10:33:36.060Z,8.21
2017-11-28T10:34:36.331Z,8.08
2017-11-28T10:35:36.325Z,8.02
2017-11-28T10:36:36.009Z,8.08
2017-11-28T10:37:36.267Z,8.25
2017-11-28T10:38:36.241Z,8.07
2017-11-28T10:39:36.508Z,8.03
2017-11-28T10:40:36.230Z,8.36
2017-11-28T10:41:36.199Z,8.48
2017-11-28T10:42:36.449Z,8.45
2017-11-28T10:43:36.159Z,8.53
2017-11-28T10:44:36.154Z,8.48
2017-11-28T10:45:36.402Z,8.33
2017-11-28T10:46:35.835Z,8.14
2017-11-28T10:47:36.352Z,8
2017-11-28T10:48:36.073Z,7.92
2017-11-28T10:49:35.781Z,7.75
2017-11-28T10:50:36.034Z,7.72
2017-11-28T10:51:36.289Z,7.72
2017-11-28T10:52:36.282Z,7.74
2017-11-28T10:53:35.992Z,7.69
2017-11-28T10:54:35.703Z,7.74
2017-11-28T10:55:35.958Z,7.74
2017-11-28T10:56:35.931Z,7.74
2017-11-28T10:57:35.912Z,8.15
2017-11-28T10:58:36.183Z,8.47
2017-11-28T10:59:35.884Z,8.63
2017-11-28T11:00:36.132Z,8.68
2017-11-28T11:01:35.836Z,8.55
2017-11-28T11:02:35.553Z,8.45
2017-11-28T11:03:35.810Z,8.35
2017-11-28T11:04:35.791Z,8.36
2017-11-28T11:05:35.778Z,8.14
2017-11-28T11:06:36.028Z,8.15
2017-11-28T11:07:35.467Z,8.03
2017-11-28T11:08:35.998Z,8.03
2017-11-28T11:09:35.703Z,8.11
2017-11-28T11:10:35.685Z,8.2
2017-11-28T11:11:35.661Z,8.29
2017-11-28T11:12:35.645Z,8.29
2017-11-28T11:13:35.628Z,8.44
2017-11-28T11:14:35.615Z,8.66
2017-11-28T11:15:35.594Z,8.65
2017-11-28T11:16:35.865Z,8.75
2017-11-28T11:17:35.593Z,8.58
2017-11-28T11:18:35.541Z,8.6
2017-11-28T11:19:35.534Z,8.55
2017-11-28T11:20:35.774Z,8.55
2017-11-28T11:21:35.761Z,8.48
2017-11-28T11:22:35.469Z,8.26
2017-11-28T11:23:35.450Z,8.2
2017-11-28T11:24:35.435Z,8.15
2017-11-28T11:25:35.427Z,8.11
2017-11-28T11:26:35.400Z,8.07
2017-11-28T11:27:35.388Z,8.04
2017-11-28T11:28:35.641Z,8
2017-11-28T11:29:35.076Z,8.12
2017-11-28T11:30:35.058Z,8.03
2017-11-28T11:31:35.039Z,8.04
2017-11-28T11:32:35.563Z,8.07
2017-11-28T11:33:35.004Z,8.07
2017-11-28T11:34:35.525Z,8.04
2017-11-28T11:35:35.250Z,8.07
2017-11-28T11:36:35.495Z,8.03
2017-11-28T11:37:35.469Z,7.94
2017-11-28T11:38:35.195Z,8.02
2017-11-28T11:39:35.443Z,8
2017-11-28T11:40:35.414Z,7.9
2017-11-28T11:41:35.394Z,7.89
2017-11-28T11:42:35.115Z,7.92
2017-11-28T11:43:35.100Z,7.89
2017-11-28T11:44:35.075Z,7.89
2017-11-28T11:45:35.332Z,7.84
2017-11-28T11:46:35.316Z,7.82
2017-11-28T11:47:35.028Z,7.9
2017-11-28T11:48:35.010Z,7.84
2017-11-28T11:49:34.980Z,7.85
2017-11-28T11:50:34.961Z,7.87
2017-11-28T11:51:34.677Z,7.74
2017-11-28T11:52:35.199Z,7.79
2017-11-28T11:53:34.910Z,7.69
2017-11-28T11:54:34.895Z,7.63
2017-11-28T11:55:35.148Z,7.71
2017-11-28T11:56:34.853Z,7.66
2017-11-28T11:57:35.114Z,7.69
2017-11-28T11:58:34.817Z,7.72
2017-11-28T11:59:34.527Z,7.78
2017-11-28T12:00:35.062Z,7.79
2017-11-28T12:01:34.758Z,7.72
2017-11-28T12:02:34.748Z,7.74
2017-11-28T12:03:35.007Z,7.78
2017-11-28T12:04:34.981Z,7.79
2017-11-28T12:05:34.688Z,7.81
2017-11-28T12:06:34.950Z,7.82
2017-11-28T12:07:34.656Z,7.79
2017-11-28T12:08:34.891Z,7.78
2017-11-28T12:09:34.611Z,7.89
2017-11-28T12:10:34.589Z,7.79
2017-11-28T12:11:34.870Z,7.84
2017-11-28T12:12:34.823Z,7.79
2017-11-28T12:13:34.554Z,7.79
2017-11-28T12:14:34.511Z,7.85
2017-11-28T12:15:34.975Z,7.87
2017-11-28T12:16:34.751Z,7.87
2017-11-28T12:17:34.456Z,7.85
2017-11-28T12:18:34.438Z,7.84
2017-11-28T12:19:34.437Z,7.82
2017-11-28T12:20:34.692Z,7.9
2017-11-28T12:21:34.420Z,7.82
2017-11-28T12:22:34.647Z,7.79
2017-11-28T12:23:34.078Z,7.75
2017-11-28T12:24:34.062Z,7.81
2017-11-28T12:25:34.594Z,7.81
2017-11-28T12:26:34.292Z,7.78
2017-11-28T12:27:34.041Z,7.77
2017-11-28T12:28:34.021Z,7.75
2017-11-28T12:29:34.509Z,7.77
2017-11-28T12:30:34.222Z,7.82
2017-11-28T12:31:33.932Z,7.74
2017-11-28T12:32:34.181Z,7.81
2017-11-28T12:33:34.175Z,7.85
2017-11-28T12:34:34.143Z,7.85
2017-11-28T12:35:34.404Z,7.84
2017-11-28T12:36:34.408Z,7.79
2017-11-28T12:37:33.829Z,7.75
2017-11-28T12:38:34.070Z,7.75
2017-11-28T12:39:34.077Z,7.79
2017-11-28T12:40:34.032Z,7.82
2017-11-28T12:41:34.297Z,7.79
2017-11-28T12:42:34.282Z,7.78
2017-11-28T12:43:33.984Z,7.75
2017-11-28T12:44:33.954Z,7.82
2017-11-28T12:45:33.668Z,7.66
2017-11-28T12:46:33.924Z,7.72
2017-11-28T12:47:33.915Z,7.69
2017-11-28T12:48:33.885Z,7.72
2017-11-28T12:49:33.870Z,7.74
2017-11-28T12:50:33.580Z,7.9
2017-11-28T12:51:33.827Z,7.87
2017-11-28T12:52:33.819Z,8.11
2017-11-28T12:53:33.788Z,8.4
2017-11-28T12:54:33.501Z,8.66
2017-11-28T12:55:33.486Z,8.86
2017-11-28T12:56:33.737Z,8.81
2017-11-28T12:57:34.014Z,9.05
2017-11-28T12:58:33.967Z,9.43
2017-11-28T12:59:33.680Z,9.64
2017-11-28T13:00:33.409Z,9.73
2017-11-28T13:01:33.385Z,9.68
2017-11-28T13:02:33.647Z,9.57
2017-11-28T13:03:33.631Z,9.53
2017-11-28T13:04:33.868Z,9.61
2017-11-28T13:05:33.872Z,9.85
2017-11-28T13:06:33.862Z,9.73
2017-11-28T13:07:33.561Z,9.31
2017-11-28T13:08:33.814Z,9.43
2017-11-28T13:09:33.255Z,9.61
2017-11-28T13:10:33.781Z,9.39
2017-11-28T13:11:33.498Z,9.16
2017-11-28T13:12:33.491Z,8.9
2017-11-28T13:13:33.469Z,9.16
2017-11-28T13:14:33.184Z,9.38
2017-11-28T13:15:33.435Z,9.78
2017-11-28T13:16:33.681Z,9.97
2017-11-28T13:17:33.132Z,10.18
2017-11-28T13:18:33.138Z,10.39
2017-11-28T13:19:33.366Z,10.55
2017-11-28T13:20:33.652Z,10.77
2017-11-28T13:21:33.354Z,10.84
2017-11-28T13:22:33.069Z,11.02